createdAt,value
2018-07-30T00:00:19.924Z,4.00
2018-07-30T00:02:47.911Z,4.93
2018-07-30T00:05:15.959Z,4.67
2018-07-30T00:07:43.949Z,4.00
2018-07-30T00:10:11.956Z,4.80
2018-07-30T00:12:39.964Z,4.33
2018-07-30T00:15:07.993Z,3.90
2018-07-30T00:17:36.013Z,4.03
2018-07-30T00:20:04.088Z,4.30
2018-07-30T00:22:32.122Z,3.90
2018-07-30T00:25:00.303Z,3.97
2018-07-30T00:27:28.316Z,4.67
2018-07-30T00:29:56.424Z,4.10
2018-07-30T00:32:24.424Z,4.43
2018-07-30T00:34:52.424Z,4.43
2018-07-30T00:37:20.477Z,4.50
2018-07-30T00:39:48.510Z,4.10
2018-07-30T00:42:16.560Z,4.50
2018-07-30T00:44:44.647Z,4.30
2018-07-30T00:47:12.893Z,4.60
2018-07-30T00:49:40.967Z,4.73
2018-07-30T00:52:09.066Z,4.43
2018-07-30T00:54:37.064Z,4.60
2018-07-30T00:57:05.348Z,3.73
2018-07-30T00:59:33.369Z,3.93
2018-07-30T01:02:01.381Z,4.33
2018-07-30T01:04:29.473Z,4.43
2018-07-30T01:06:57.532Z,4.27
2018-07-30T01:09:25.569Z,4.27
2018-07-30T01:11:57.675Z,3.77
2018-07-30T01:14:26.302Z,4.23
2018-07-30T01:16:54.340Z,4.43
2018-07-30T01:19:22.373Z,4.57
2018-07-30T01:21:50.411Z,4.43
2018-07-30T01:24:18.428Z,4.30
2018-07-30T01:26:46.437Z,4.20
2018-07-30T01:29:14.436Z,5.20
2018-07-30T01:31:42.425Z,4.47
2018-07-30T01:34:10.488Z,4.23
2018-07-30T01:36:38.573Z,4.50
2018-07-30T01:39:07.763Z,4.53
2018-07-30T01:41:35.792Z,4.10
2018-07-30T01:44:04.040Z,4.40
2018-07-30T01:46:32.063Z,4.63
2018-07-30T01:49:00.142Z,4.20
2018-07-30T01:51:28.204Z,5.10
2018-07-30T01:53:56.201Z,4.27
2018-07-30T01:56:24.188Z,4.37
2018-07-30T01:58:52.184Z,4.30
2018-07-30T02:01:20.190Z,4.70
2018-07-30T02:03:48.278Z,3.83
2018-07-30T02:06:16.277Z,4.27
2018-07-30T02:08:44.264Z,4.13
2018-07-30T02:11:12.296Z,4.27
2018-07-30T02:13:40.319Z,5.80
2018-07-30T02:16:08.358Z,4.33
2018-07-30T02:18:36.349Z,4.00
2018-07-30T02:21:04.372Z,5.40
2018-07-30T02:23:32.371Z,4.37
2018-07-30T02:26:00.429Z,4.53
2018-07-30T02:28:28.432Z,5.27
2018-07-30T02:30:56.461Z,4.70
2018-07-30T02:33:24.460Z,4.57
2018-07-30T02:35:52.472Z,4.97
2018-07-30T02:38:20.469Z,4.83
2018-07-30T02:40:48.504Z,4.43
2018-07-30T02:43:16.556Z,5.13
2018-07-30T02:45:44.555Z,4.90
2018-07-30T02:48:12.553Z,4.73
2018-07-30T02:50:40.813Z,5.40
2018-07-30T02:53:08.813Z,4.77
2018-07-30T02:55:36.845Z,4.60
2018-07-30T02:58:04.842Z,4.73
2018-07-30T03:00:32.841Z,4.93
2018-07-30T03:03:00.829Z,4.83
2018-07-30T03:05:28.837Z,4.40
2018-07-30T03:07:56.875Z,4.73
2018-07-30T03:10:24.914Z,4.90
2018-07-30T03:12:52.941Z,4.13
2018-07-30T03:15:21.070Z,4.77
2018-07-30T03:17:49.118Z,4.60
2018-07-30T03:20:17.140Z,5.30
2018-07-30T03:22:45.224Z,5.60
2018-07-30T03:25:13.226Z,4.53
2018-07-30T03:27:41.302Z,4.90
2018-07-30T03:30:10.301Z,5.33
2018-07-30T03:32:38.422Z,4.50
2018-07-30T03:35:07.245Z,5.10
2018-07-30T03:37:35.253Z,4.80
2018-07-30T03:40:03.603Z,5.27
2018-07-30T03:42:31.609Z,4.87
2018-07-30T03:44:59.619Z,5.03
2018-07-30T03:47:27.643Z,4.77
2018-07-30T03:49:55.636Z,6.17
2018-07-30T03:52:24.468Z,5.90
2018-07-30T03:54:52.452Z,5.17
2018-07-30T03:57:20.480Z,5.23
2018-07-30T03:59:48.538Z,5.30
2018-07-30T04:02:16.540Z,5.43
2018-07-30T04:04:44.616Z,5.00
2018-07-30T04:07:12.693Z,5.00
2018-07-30T04:09:40.698Z,5.90
2018-07-30T04:12:08.703Z,4.90
2018-07-30T04:14:36.801Z,5.00
2018-07-30T04:17:04.796Z,4.47
2018-07-30T04:19:32.804Z,5.60
2018-07-30T04:22:00.847Z,6.33
2018-07-30T04:24:28.830Z,5.20
2018-07-30T04:26:56.893Z,5.50
2018-07-30T04:29:24.990Z,5.20
2018-07-30T04:31:53.024Z,4.70
2018-07-30T04:34:21.037Z,4.87
2018-07-30T04:36:49.039Z,5.53
2018-07-30T04:39:17.033Z,5.10
2018-07-30T04:41:45.185Z,5.40
2018-07-30T04:44:13.347Z,5.00
2018-07-30T04:46:41.345Z,5.70
2018-07-30T04:49:10.459Z,5.10
2018-07-30T04:51:38.412Z,5.00
2018-07-30T04:54:06.661Z,5.47
2018-07-30T04:56:34.969Z,4.80
2018-07-30T04:59:02.973Z,5.93
2018-07-30T05:01:31.197Z,4.57
2018-07-30T05:03:59.200Z,5.43
2018-07-30T05:06:27.228Z,5.00
2018-07-30T05:08:55.260Z,5.00
2018-07-30T05:11:23.508Z,5.20
2018-07-30T05:13:51.516Z,5.73
2018-07-30T05:16:19.503Z,5.30
2018-07-30T05:18:47.559Z,5.20
2018-07-30T05:21:16.537Z,4.70
2018-07-30T05:23:44.552Z,5.30
2018-07-30T05:26:12.856Z,4.87
2018-07-30T05:28:40.881Z,5.00
2018-07-30T05:31:09.057Z,5.93
2018-07-30T05:33:37.068Z,5.23
2018-07-30T05:36:05.060Z,5.50
2018-07-30T05:38:33.089Z,6.17
2018-07-30T05:41:01.100Z,5.30
2018-07-30T05:43:29.100Z,5.33
2018-07-30T05:45:57.130Z,7.10
2018-07-30T05:48:25.116Z,5.40
2018-07-30T05:50:53.101Z,5.50
2018-07-30T05:53:21.142Z,5.67
2018-07-30T05:55:49.129Z,5.33
2018-07-30T05:58:17.157Z,5.33
2018-07-30T06:00:45.165Z,5.77
2018-07-30T06:03:13.195Z,5.40
2018-07-30T06:05:41.185Z,5.83
2018-07-30T06:08:09.197Z,5.43
2018-07-30T06:10:37.191Z,5.90
2018-07-30T06:13:05.208Z,5.40
2018-07-30T06:15:33.332Z,6.70
2018-07-30T06:18:01.336Z,5.20
2018-07-30T06:20:29.320Z,6.03
2018-07-30T06:22:57.311Z,5.50
2018-07-30T06:25:25.304Z,5.63
2018-07-30T06:27:53.300Z,5.90
2018-07-30T06:30:21.347Z,7.30
2018-07-30T06:32:49.320Z,5.83
2018-07-30T06:35:17.307Z,6.30
2018-07-30T06:37:45.315Z,5.80
2018-07-30T06:40:13.297Z,5.70
2018-07-30T06:42:41.285Z,5.43
2018-07-30T06:45:09.268Z,5.97
2018-07-30T06:47:37.317Z,6.10
2018-07-30T06:50:05.355Z,6.70
2018-07-30T06:52:33.380Z,6.33
2018-07-30T06:55:01.445Z,6.17
2018-07-30T06:57:29.461Z,6.93
2018-07-30T06:59:57.444Z,5.63
2018-07-30T07:02:25.448Z,6.13
2018-07-30T07:04:53.464Z,5.43
2018-07-30T07:07:21.447Z,5.57
2018-07-30T07:09:49.446Z,5.67
2018-07-30T07:12:17.466Z,5.20
2018-07-30T07:14:45.516Z,5.33
2018-07-30T07:17:13.514Z,5.73
2018-07-30T07:19:41.508Z,5.47
2018-07-30T07:22:09.506Z,4.63
2018-07-30T07:24:37.530Z,5.53
2018-07-30T07:27:05.648Z,5.70
2018-07-30T07:29:33.521Z,5.93
2018-07-30T07:32:01.500Z,4.97
2018-07-30T07:34:29.584Z,4.37
2018-07-30T07:36:57.576Z,5.17
2018-07-30T07:39:25.616Z,4.47
2018-07-30T07:41:53.621Z,4.27
2018-07-30T07:44:21.620Z,3.83
2018-07-30T07:46:49.597Z,4.30
2018-07-30T07:49:17.591Z,4.03
2018-07-30T07:51:45.577Z,3.50
2018-07-30T07:54:13.556Z,3.10
2018-07-30T07:56:41.788Z,2.87
2018-07-30T07:59:10.586Z,2.60
2018-07-30T08:01:38.812Z,3.30
2018-07-30T08:04:06.776Z,2.93
2018-07-30T08:06:34.780Z,3.07
2018-07-30T08:09:02.940Z,3.07
2018-07-30T08:11:30.993Z,3.37
2018-07-30T08:13:58.970Z,3.23
2018-07-30T08:16:27.174Z,3.83
2018-07-30T08:18:55.186Z,2.90
2018-07-30T08:21:23.266Z,3.10
2018-07-30T08:23:51.284Z,3.00
2018-07-30T08:26:19.300Z,3.43
2018-07-30T08:28:47.306Z,3.43
2018-07-30T08:31:15.294Z,3.17
2018-07-30T08:33:43.308Z,3.00
2018-07-30T08:36:11.302Z,2.73
2018-07-30T08:38:39.276Z,3.30
2018-07-30T08:41:07.291Z,2.80
2018-07-30T08:43:35.305Z,2.93
2018-07-30T08:46:03.285Z,3.20
2018-07-30T08:48:31.341Z,3.07
2018-07-30T08:50:59.336Z,2.77
2018-07-30T08:53:27.343Z,3.07
2018-07-30T08:55:55.307Z,2.97
2018-07-30T08:58:23.287Z,2.60
2018-07-30T09:00:51.283Z,2.60
2018-07-30T09:03:19.258Z,2.90
2018-07-30T09:05:47.236Z,2.30
2018-07-30T09:08:15.209Z,2.30
2018-07-30T09:10:43.205Z,2.73
2018-07-30T09:13:11.251Z,2.20
2018-07-30T09:15:39.223Z,3.17
2018-07-30T09:18:07.272Z,2.62
2018-07-30T09:20:35.200Z,2.67
2018-07-30T09:23:03.225Z,2.52
2018-07-30T09:25:31.295Z,2.50
2018-07-30T09:27:59.433Z,3.52
2018-07-30T09:30:27.440Z,2.85
2018-07-30T09:32:55.498Z,2.20
2018-07-30T09:35:23.496Z,2.70
2018-07-30T09:37:51.648Z,3.17
2018-07-30T09:40:19.701Z,2.60
2018-07-30T09:42:47.751Z,2.80
2018-07-30T09:45:15.931Z,2.40
2018-07-30T09:47:44.000Z,2.80
2018-07-30T09:50:12.027Z,2.63
2018-07-30T09:52:40.103Z,2.90
2018-07-30T09:55:08.208Z,3.10
2018-07-30T09:57:36.222Z,2.60
2018-07-30T10:00:05.034Z,2.85
2018-07-30T10:02:32.996Z,2.60
2018-07-30T10:05:00.976Z,2.33
2018-07-30T10:07:28.971Z,2.17
2018-07-30T10:09:57.062Z,2.73
2018-07-30T10:12:25.120Z,3.03
2018-07-30T10:14:53.139Z,2.80
2018-07-30T10:17:21.109Z,2.50
2018-07-30T10:19:49.092Z,2.60
2018-07-30T10:22:17.092Z,3.00
2018-07-30T10:24:45.297Z,3.27
2018-07-30T10:27:13.380Z,2.90
2018-07-30T10:29:41.409Z,2.53
2018-07-30T10:32:09.401Z,3.00
2018-07-30T10:34:37.462Z,2.63
2018-07-30T10:37:05.473Z,2.80
2018-07-30T10:39:33.460Z,3.10
2018-07-30T10:42:01.461Z,2.70
2018-07-30T10:44:29.472Z,2.73
2018-07-30T10:46:57.504Z,3.10
2018-07-30T10:49:25.540Z,2.70
2018-07-30T10:51:53.557Z,2.80
2018-07-30T10:54:21.564Z,2.90
2018-07-30T10:56:49.636Z,2.83
2018-07-30T10:59:17.670Z,2.70
2018-07-30T11:01:46.712Z,3.53
2018-07-30T11:04:14.713Z,2.80
2018-07-30T11:06:42.712Z,3.37
2018-07-30T11:09:13.802Z,3.07
2018-07-30T11:11:39.047Z,3.17
2018-07-30T11:14:07.149Z,3.20
2018-07-30T11:16:35.144Z,3.30
2018-07-30T11:19:03.557Z,3.07
2018-07-30T11:21:31.591Z,3.10
2018-07-30T11:23:59.597Z,3.60
2018-07-30T11:26:27.643Z,2.70
2018-07-30T11:28:55.636Z,3.70
2018-07-30T11:31:23.648Z,3.50
2018-07-30T11:33:52.657Z,3.23
2018-07-30T11:36:20.659Z,3.13
2018-07-30T11:38:48.645Z,2.70
2018-07-30T11:41:16.648Z,3.20
2018-07-30T11:43:44.728Z,3.27
2018-07-30T11:46:12.668Z,2.60
2018-07-30T11:48:40.710Z,3.03
2018-07-30T11:51:08.636Z,3.20
2018-07-30T11:53:36.662Z,2.73
2018-07-30T11:56:04.654Z,3.60
2018-07-30T11:58:32.628Z,2.10
2018-07-30T12:01:00.669Z,2.80
2018-07-30T12:03:28.676Z,3.03
2018-07-30T12:05:56.668Z,3.10
2018-07-30T12:08:24.648Z,3.10
2018-07-30T12:10:53.085Z,2.73
2018-07-30T12:13:21.092Z,3.60
2018-07-30T12:15:49.111Z,3.03
2018-07-30T12:18:17.101Z,3.03
2018-07-30T12:20:45.155Z,3.20
2018-07-30T12:23:13.148Z,2.90
2018-07-30T12:25:41.168Z,3.17
2018-07-30T12:28:09.157Z,3.53
2018-07-30T12:30:37.223Z,2.90
2018-07-30T12:33:05.166Z,3.20
2018-07-30T12:35:33.172Z,3.00
2018-07-30T12:38:01.165Z,3.10
2018-07-30T12:40:33.372Z,3.30
2018-07-30T12:43:01.806Z,2.50
2018-07-30T12:45:35.177Z,2.97
2018-07-30T12:48:03.151Z,3.03
2018-07-30T12:50:31.128Z,3.00
2018-07-30T12:52:59.130Z,2.77
2018-07-30T12:55:27.096Z,2.77
2018-07-30T12:57:55.193Z,2.80
2018-07-30T13:00:23.207Z,2.70
2018-07-30T13:02:51.261Z,2.67
2018-07-30T13:05:19.236Z,2.60
2018-07-30T13:07:47.306Z,3.00
2018-07-30T13:10:15.306Z,3.27
2018-07-30T13:12:43.360Z,2.70
2018-07-30T13:15:11.579Z,2.83
2018-07-30T13:17:39.664Z,2.87
2018-07-30T13:20:07.773Z,3.40
2018-07-30T13:22:35.828Z,3.13
2018-07-30T13:25:03.928Z,3.40
2018-07-30T13:27:33.032Z,2.73
2018-07-30T13:30:01.012Z,2.90
2018-07-30T13:32:29.037Z,3.33
2018-07-30T13:34:57.002Z,2.90
2018-07-30T13:37:25.006Z,2.63
2018-07-30T13:39:53.004Z,3.17
2018-07-30T13:42:21.014Z,2.90
2018-07-30T13:44:49.113Z,2.97
2018-07-30T13:47:17.146Z,2.70
2018-07-30T13:49:45.325Z,3.17
2018-07-30T13:52:13.482Z,3.10
2018-07-30T13:54:41.552Z,3.10
2018-07-30T13:57:09.638Z,3.30
2018-07-30T13:59:37.625Z,2.90
2018-07-30T14:02:05.608Z,3.60
2018-07-30T14:04:33.628Z,3.67
2018-07-30T14:07:01.790Z,3.20
2018-07-30T14:09:29.889Z,2.83
2018-07-30T14:11:57.951Z,3.07
2018-07-30T14:14:26.203Z,2.90
2018-07-30T14:16:54.212Z,3.23
2018-07-30T14:19:22.201Z,2.70
2018-07-30T14:21:50.281Z,2.87
2018-07-30T14:24:18.357Z,3.17
2018-07-30T14:26:46.466Z,3.83
2018-07-30T14:29:16.081Z,3.40
2018-07-30T14:31:47.936Z,3.13
2018-07-30T14:34:16.473Z,3.20
2018-07-30T14:36:44.495Z,2.80
2018-07-30T14:39:12.525Z,2.90
2018-07-30T14:41:40.761Z,2.67
2018-07-30T14:44:08.790Z,2.90
2018-07-30T14:46:36.831Z,2.43
2018-07-30T14:49:04.978Z,2.77
2018-07-30T14:51:33.005Z,3.13
2018-07-30T14:54:00.951Z,2.97
2018-07-30T14:56:28.987Z,2.83
2018-07-30T14:58:57.082Z,2.77
2018-07-30T15:01:25.100Z,2.73
2018-07-30T15:03:53.092Z,2.87
2018-07-30T15:06:21.196Z,2.60
2018-07-30T15:08:49.212Z,2.90
2018-07-30T15:11:17.225Z,2.67
2018-07-30T15:13:45.220Z,3.00
2018-07-30T15:16:13.245Z,3.43
2018-07-30T15:18:41.417Z,2.77
2018-07-30T15:21:09.447Z,2.80
2018-07-30T15:23:37.470Z,3.23
2018-07-30T15:26:05.492Z,3.30
2018-07-30T15:28:33.574Z,3.20
2018-07-30T15:31:01.545Z,3.03
2018-07-30T15:33:29.544Z,2.90
2018-07-30T15:35:57.559Z,3.37
2018-07-30T15:38:25.539Z,3.10
2018-07-30T15:40:53.628Z,2.90
2018-07-30T15:43:21.725Z,2.77
2018-07-30T15:45:49.775Z,3.43
2018-07-30T15:48:17.802Z,3.37
2018-07-30T15:50:45.772Z,3.00
2018-07-30T15:53:13.917Z,2.97
2018-07-30T15:55:42.051Z,2.80
2018-07-30T15:58:10.057Z,3.50
2018-07-30T16:00:38.087Z,2.70
2018-07-30T16:03:06.192Z,2.80
2018-07-30T16:05:34.335Z,2.80
2018-07-30T16:08:02.302Z,2.60
2018-07-30T16:10:30.305Z,3.33
2018-07-30T16:12:58.305Z,3.20
2018-07-30T16:15:26.369Z,3.03
2018-07-30T16:17:54.462Z,2.60
2018-07-30T16:20:22.365Z,3.10
2018-07-30T16:22:50.376Z,3.40
2018-07-30T16:25:18.380Z,3.20
2018-07-30T16:27:46.540Z,3.57
2018-07-30T16:30:15.595Z,2.73
2018-07-30T16:32:43.623Z,3.37
2018-07-30T16:35:11.661Z,2.63
2018-07-30T16:37:39.648Z,2.93
2018-07-30T16:40:07.924Z,3.40
2018-07-30T16:42:35.978Z,3.30
2018-07-30T16:45:04.537Z,3.07
2018-07-30T16:47:32.548Z,2.50
2018-07-30T16:50:00.558Z,2.30
2018-07-30T16:52:28.599Z,3.00
2018-07-30T16:54:56.590Z,2.80
2018-07-30T16:57:24.569Z,3.10
2018-07-30T16:59:52.540Z,3.10
2018-07-30T17:02:20.544Z,3.80
2018-07-30T17:04:48.528Z,3.60
2018-07-30T17:07:16.532Z,3.63
2018-07-30T17:09:44.625Z,3.43
2018-07-30T17:12:12.730Z,2.93
2018-07-30T17:14:40.771Z,2.80
2018-07-30T17:17:08.824Z,3.07
2018-07-30T17:19:36.824Z,3.13
2018-07-30T17:22:04.856Z,3.23
2018-07-30T17:24:32.861Z,2.93
2018-07-30T17:27:00.831Z,3.80
2018-07-30T17:29:28.819Z,3.23
2018-07-30T17:31:56.792Z,3.10
2018-07-30T17:34:25.921Z,3.57
2018-07-30T17:36:53.952Z,3.60
2018-07-30T17:39:22.061Z,3.23
2018-07-30T17:41:50.148Z,2.90
2018-07-30T17:44:18.114Z,2.80
2018-07-30T17:46:46.124Z,3.30
2018-07-30T17:49:14.581Z,2.60
2018-07-30T17:51:42.841Z,3.00
2018-07-30T17:54:10.885Z,3.10
2018-07-30T17:56:38.886Z,3.50
2018-07-30T17:59:06.973Z,3.20
2018-07-30T18:01:34.956Z,3.23
2018-07-30T18:04:02.956Z,3.20
2018-07-30T18:06:30.960Z,3.07
2018-07-30T18:08:59.082Z,3.23
2018-07-30T18:11:27.168Z,3.47
2018-07-30T18:13:55.194Z,3.10
2018-07-30T18:16:23.417Z,3.63
2018-07-30T18:18:51.429Z,3.60
2018-07-30T18:21:19.497Z,2.80
2018-07-30T18:23:47.546Z,3.57
2018-07-30T18:26:15.624Z,3.70
2018-07-30T18:28:43.644Z,3.77
2018-07-30T18:31:12.717Z,3.20
2018-07-30T18:33:41.015Z,3.83
2018-07-30T18:36:09.025Z,3.10
2018-07-30T18:38:37.004Z,3.87
2018-07-30T18:41:05.009Z,4.00
2018-07-30T18:43:33.006Z,4.20
2018-07-30T18:46:00.980Z,4.27
2018-07-30T18:48:28.985Z,3.93
2018-07-30T18:50:56.964Z,3.97
2018-07-30T18:53:24.959Z,3.50
2018-07-30T18:55:53.013Z,4.67
2018-07-30T18:58:21.040Z,4.00
2018-07-30T19:00:49.055Z,4.90
2018-07-30T19:03:17.066Z,4.20
2018-07-30T19:05:45.056Z,4.50
2018-07-30T19:08:13.076Z,4.43
2018-07-30T19:10:41.089Z,5.40
2018-07-30T19:13:09.077Z,4.70
2018-07-30T19:15:37.076Z,5.50
2018-07-30T19:18:05.149Z,4.90
2018-07-30T19:20:33.148Z,4.90
2018-07-30T19:23:01.160Z,4.30
2018-07-30T19:25:29.191Z,5.07
2018-07-30T19:27:57.202Z,4.80
2018-07-30T19:30:25.267Z,5.17
2018-07-30T19:32:53.325Z,4.27
2018-07-30T19:35:21.304Z,4.93
2018-07-30T19:37:49.296Z,4.90
2018-07-30T19:40:17.292Z,4.50
2018-07-30T19:42:45.281Z,4.90
2018-07-30T19:45:13.313Z,5.03
2018-07-30T19:47:41.313Z,4.20
2018-07-30T19:50:09.309Z,4.40
2018-07-30T19:52:37.355Z,4.27
2018-07-30T19:55:05.928Z,4.90
2018-07-30T19:57:34.104Z,3.93
2018-07-30T20:00:01.990Z,4.90
2018-07-30T20:02:30.041Z,5.73
2018-07-30T20:04:58.040Z,4.50
2018-07-30T20:07:26.061Z,4.83
2018-07-30T20:09:54.470Z,4.17
2018-07-30T20:12:22.472Z,5.13
2018-07-30T20:14:50.534Z,4.90
2018-07-30T20:17:18.576Z,6.97
2018-07-30T20:19:46.656Z,5.33
2018-07-30T20:22:14.669Z,4.77
2018-07-30T20:24:42.749Z,5.83
2018-07-30T20:27:10.752Z,5.40
2018-07-30T20:29:38.747Z,5.10
2018-07-30T20:32:06.948Z,5.40
2018-07-30T20:34:34.949Z,5.67
2018-07-30T20:37:02.963Z,5.00
2018-07-30T20:39:30.947Z,4.77
2018-07-30T20:41:58.981Z,4.90
2018-07-30T20:44:26.968Z,4.93
2018-07-30T20:46:55.022Z,5.10
2018-07-30T20:49:23.132Z,4.90
2018-07-30T20:51:51.209Z,5.70
2018-07-30T20:54:19.214Z,5.23
2018-07-30T20:56:47.239Z,4.83
2018-07-30T20:59:15.225Z,5.17
2018-07-30T21:01:43.227Z,5.30
2018-07-30T21:04:11.214Z,4.73
2018-07-30T21:06:39.209Z,5.17
2018-07-30T21:09:08.628Z,4.67
2018-07-30T21:11:36.722Z,4.80
2018-07-30T21:14:04.672Z,4.97
2018-07-30T21:16:32.828Z,4.87
2018-07-30T21:19:00.893Z,5.20
2018-07-30T21:21:28.918Z,5.07
2018-07-30T21:23:57.300Z,4.27
2018-07-30T21:26:25.304Z,5.30
2018-07-30T21:28:53.329Z,4.67
2018-07-30T21:31:21.380Z,5.03
2018-07-30T21:33:49.464Z,4.90
2018-07-30T21:36:17.660Z,5.07
2018-07-30T21:38:45.741Z,5.00
2018-07-30T21:41:13.728Z,4.63
2018-07-30T21:43:42.804Z,4.03
2018-07-30T21:46:10.836Z,5.20
2018-07-30T21:48:38.857Z,5.30
2018-07-30T21:51:07.121Z,4.50
2018-07-30T21:53:35.350Z,5.10
2018-07-30T21:56:03.457Z,5.03
2018-07-30T21:58:31.512Z,4.50
2018-07-30T22:00:59.583Z,4.80
2018-07-30T22:03:27.783Z,4.70
2018-07-30T22:05:55.849Z,4.80
2018-07-30T22:08:24.049Z,4.70
2018-07-30T22:10:52.137Z,5.13
2018-07-30T22:13:20.153Z,5.63
2018-07-30T22:15:48.364Z,4.93
2018-07-30T22:18:16.380Z,5.33
2018-07-30T22:20:44.390Z,5.07
2018-07-30T22:23:12.453Z,5.30
2018-07-30T22:25:40.802Z,5.47
2018-07-30T22:28:08.848Z,4.67
2018-07-30T22:30:37.015Z,5.13
2018-07-30T22:33:05.052Z,5.77
2018-07-30T22:35:33.121Z,5.43
2018-07-30T22:38:01.120Z,4.57
2018-07-30T22:40:29.260Z,6.07
2018-07-30T22:42:57.252Z,4.97
2018-07-30T22:45:25.292Z,5.60
2018-07-30T22:47:53.376Z,5.50
2018-07-30T22:50:21.364Z,5.13
2018-07-30T22:52:49.364Z,5.50
2018-07-30T22:55:17.409Z,5.87
2018-07-30T22:57:45.458Z,5.27
2018-07-30T23:00:13.600Z,5.33
2018-07-30T23:02:41.581Z,5.77
2018-07-30T23:05:09.604Z,5.50
2018-07-30T23:07:38.019Z,5.90
2018-07-30T23:10:06.137Z,5.33
2018-07-30T23:12:34.132Z,4.90
2018-07-30T23:15:02.230Z,5.90
2018-07-30T23:17:30.235Z,5.50
2018-07-30T23:19:58.360Z,4.97
2018-07-30T23:22:26.344Z,6.30
2018-07-30T23:24:54.381Z,5.30
2018-07-30T23:27:22.413Z,5.80
2018-07-30T23:29:50.408Z,5.83
2018-07-30T23:32:18.505Z,5.50
2018-07-30T23:34:46.569Z,6.03
2018-07-30T23:37:14.729Z,5.80
2018-07-30T23:39:42.656Z,6.20
2018-07-30T23:42:10.629Z,5.50
2018-07-30T23:44:38.629Z,6.13
2018-07-30T23:47:06.616Z,6.23
2018-07-30T23:49:34.716Z,6.10
2018-07-30T23:52:02.712Z,6.00
2018-07-30T23:54:31.756Z,5.97
2018-07-30T23:56:59.756Z,6.73
2018-07-30T23:59:27.796Z,6.70
